sensor_id;sensor_type;location;lat;lon;timestamp;P1;durP1;ratioP1;P2;durP2;ratioP2
22357;SDS011;11346;50.150;8.150;2022-10-31T00:01:36;10.27;;;4.80;;
22357;SDS011;11346;50.150;8.150;2022-10-31T00:04:05;13.17;;;5.87;;
22357;SDS011;11346;50.150;8.150;2022-10-31T00:06:33;13.87;;;5.10;;
22357;SDS011;11346;50.150;8.150;2022-10-31T00:09:01;9.93;;;5.20;;
22357;SDS011;11346;50.150;8.150;2022-10-31T00:11:28;16.00;;;5.80;;
22357;SDS011;11346;50.150;8.150;2022-10-31T00:13:56;14.53;;;5.50;;
22357;SDS011;11346;50.150;8.150;2022-10-31T00:16:24;8.17;;;4.97;;
22357;SDS011;11346;50.150;8.150;2022-10-31T00:18:52;12.10;;;5.10;;
22357;SDS011;11346;50.150;8.150;2022-10-31T00:21:20;11.23;;;4.90;;
22357;SDS011;11346;50.150;8.150;2022-10-31T00:23:48;11.40;;;5.07;;
22357;SDS011;11346;50.150;8.150;2022-10-31T00:26:15;10.80;;;5.50;;
22357;SDS011;11346;50.150;8.150;2022-10-31T00:28:42;9.73;;;5.20;;
22357;SDS011;11346;50.150;8.150;2022-10-31T00:31:10;8.37;;;4.97;;
22357;SDS011;11346;50.150;8.150;2022-10-31T00:33:38;12.30;;;4.80;;
22357;SDS011;11346;50.150;8.150;2022-10-31T00:36:06;9.70;;;5.77;;
22357;SDS011;11346;50.150;8.150;2022-10-31T00:38:34;14.87;;;5.40;;
22357;SDS011;11346;50.150;8.150;2022-10-31T00:41:01;10.67;;;5.07;;
22357;SDS011;11346;50.150;8.150;2022-10-31T00:43:29;15.40;;;6.17;;
22357;SDS011;11346;50.150;8.150;2022-10-31T00:45:56;14.67;;;6.33;;
22357;SDS011;11346;50.150;8.150;2022-10-31T00:48:23;11.63;;;5.80;;
22357;SDS011;11346;50.150;8.150;2022-10-31T00:50:50;10.03;;;5.27;;
22357;SDS011;11346;50.150;8.150;2022-10-31T00:53:17;12.37;;;5.47;;
22357;SDS011;11346;50.150;8.150;2022-10-31T00:55:46;9.93;;;5.33;;
22357;SDS011;11346;50.150;8.150;2022-10-31T00:58:13;15.57;;;5.57;;
22357;SDS011;11346;50.150;8.150;2022-10-31T01:00:40;12.53;;;5.27;;
22357;SDS011;11346;50.150;8.150;2022-10-31T01:03:08;14.60;;;5.73;;
22357;SDS011;11346;50.150;8.150;2022-10-31T01:05:35;9.50;;;4.43;;
22357;SDS011;11346;50.150;8.150;2022-10-31T01:08:02;13.00;;;5.43;;
22357;SDS011;11346;50.150;8.150;2022-10-31T01:10:29;10.60;;;4.90;;
22357;SDS011;11346;50.150;8.150;2022-10-31T01:12:58;16.13;;;5.13;;
22357;SDS011;11346;50.150;8.150;2022-10-31T01:15:25;14.83;;;5.13;;
22357;SDS011;11346;50.150;8.150;2022-10-31T01:17:52;10.13;;;5.13;;
22357;SDS011;11346;50.150;8.150;2022-10-31T01:20:19;10.87;;;5.07;;
22357;SDS011;11346;50.150;8.150;2022-10-31T01:22:47;12.00;;;4.40;;
22357;SDS011;11346;50.150;8.150;2022-10-31T01:25:14;10.50;;;4.13;;
22357;SDS011;11346;50.150;8.150;2022-10-31T01:27:41;10.73;;;4.23;;
22357;SDS011;11346;50.150;8.150;2022-10-31T01:30:10;12.90;;;4.93;;
22357;SDS011;11346;50.150;8.150;2022-10-31T01:32:37;8.60;;;4.53;;
22357;SDS011;11346;50.150;8.150;2022-10-31T01:35:05;14.07;;;4.73;;
22357;SDS011;11346;50.150;8.150;2022-10-31T01:37:32;17.33;;;5.23;;
22357;SDS011;11346;50.150;8.150;2022-10-31T01:39:59;9.50;;;4.50;;
22357;SDS011;11346;50.150;8.150;2022-10-31T01:42:26;11.77;;;5.27;;
22357;SDS011;11346;50.150;8.150;2022-10-31T01:44:55;17.10;;;5.37;;
22357;SDS011;11346;50.150;8.150;2022-10-31T01:47:40;13.27;;;5.10;;
22357;SDS011;11346;50.150;8.150;2022-10-31T01:52:53;9.70;;;4.67;;
22357;SDS011;11346;50.150;8.150;2022-10-31T01:55:23;13.13;;;4.97;;
22357;SDS011;11346;50.150;8.150;2022-10-31T01:57:52;7.77;;;4.30;;
22357;SDS011;11346;50.150;8.150;2022-10-31T02:00:21;12.90;;;4.70;;
22357;SDS011;11346;50.150;8.150;2022-10-31T02:02:50;7.67;;;4.73;;
22357;SDS011;11346;50.150;8.150;2022-10-31T02:05:23;11.30;;;4.43;;
22357;SDS011;11346;50.150;8.150;2022-10-31T02:07:52;10.00;;;4.07;;
22357;SDS011;11346;50.150;8.150;2022-10-31T02:10:20;12.80;;;4.73;;
22357;SDS011;11346;50.150;8.150;2022-10-31T02:12:48;13.00;;;4.73;;
22357;SDS011;11346;50.150;8.150;2022-10-31T02:15:17;11.50;;;5.40;;
22357;SDS011;11346;50.150;8.150;2022-10-31T02:17:44;10.53;;;4.90;;
22357;SDS011;11346;50.150;8.150;2022-10-31T02:20:14;11.80;;;4.40;;
22357;SDS011;11346;50.150;8.150;2022-10-31T02:22:52;8.97;;;3.97;;
22357;SDS011;11346;50.150;8.150;2022-10-31T02:25:32;12.10;;;4.23;;
22357;SDS011;11346;50.150;8.150;2022-10-31T02:28:12;11.87;;;4.43;;
22357;SDS011;11346;50.150;8.150;2022-10-31T02:30:51;12.93;;;4.17;;
22357;SDS011;11346;50.150;8.150;2022-10-31T02:33:20;22.17;;;4.57;;
22357;SDS011;11346;50.150;8.150;2022-10-31T02:35:53;10.13;;;4.27;;
22357;SDS011;11346;50.150;8.150;2022-10-31T02:38:24;14.27;;;4.90;;
22357;SDS011;11346;50.150;8.150;2022-10-31T02:40:53;8.97;;;4.17;;
22357;SDS011;11346;50.150;8.150;2022-10-31T02:43:26;11.93;;;4.80;;
22357;SDS011;11346;50.150;8.150;2022-10-31T02:45:57;10.93;;;4.20;;
22357;SDS011;11346;50.150;8.150;2022-10-31T02:48:26;17.57;;;4.60;;
22357;SDS011;11346;50.150;8.150;2022-10-31T02:50:55;7.60;;;3.90;;
22357;SDS011;11346;50.150;8.150;2022-10-31T02:53:23;6.43;;;4.07;;
22357;SDS011;11346;50.150;8.150;2022-10-31T02:55:58;12.60;;;4.40;;
22357;SDS011;11346;50.150;8.150;2022-10-31T02:58:26;10.17;;;4.20;;
22357;SDS011;11346;50.150;8.150;2022-10-31T03:03:42;9.40;;;4.10;;
22357;SDS011;11346;50.150;8.150;2022-10-31T03:06:12;11.13;;;4.30;;
22357;SDS011;11346;50.150;8.150;2022-10-31T03:08:45;9.90;;;4.60;;
22357;SDS011;11346;50.150;8.150;2022-10-31T03:11:14;7.93;;;4.70;;
22357;SDS011;11346;50.150;8.150;2022-10-31T03:13:45;8.87;;;4.60;;
22357;SDS011;11346;50.150;8.150;2022-10-31T03:16:13;16.80;;;4.80;;
22357;SDS011;11346;50.150;8.150;2022-10-31T03:18:43;10.93;;;4.30;;
22357;SDS011;11346;50.150;8.150;2022-10-31T03:21:11;13.33;;;4.00;;
22357;SDS011;11346;50.150;8.150;2022-10-31T03:23:40;13.33;;;4.13;;
22357;SDS011;11346;50.150;8.150;2022-10-31T03:26:09;14.83;;;4.33;;
22357;SDS011;11346;50.150;8.150;2022-10-31T03:28:39;7.23;;;4.00;;
22357;SDS011;11346;50.150;8.150;2022-10-31T03:31:08;6.73;;;4.30;;
22357;SDS011;11346;50.150;8.150;2022-10-31T03:33:36;5.63;;;4.17;;
22357;SDS011;11346;50.150;8.150;2022-10-31T03:36:07;9.07;;;3.97;;
22357;SDS011;11346;50.150;8.150;2022-10-31T03:38:35;10.00;;;4.27;;
22357;SDS011;11346;50.150;8.150;2022-10-31T03:41:03;11.17;;;4.73;;
22357;SDS011;11346;50.150;8.150;2022-10-31T03:43:33;10.43;;;4.30;;
22357;SDS011;11346;50.150;8.150;2022-10-31T03:46:03;9.17;;;4.20;;
22357;SDS011;11346;50.150;8.150;2022-10-31T03:48:31;13.10;;;4.20;;
22357;SDS011;11346;50.150;8.150;2022-10-31T03:50:59;10.30;;;4.30;;
22357;SDS011;11346;50.150;8.150;2022-10-31T03:53:32;7.03;;;4.40;;
22357;SDS011;11346;50.150;8.150;2022-10-31T03:56:06;12.00;;;4.90;;
22357;SDS011;11346;50.150;8.150;2022-10-31T03:58:36;9.13;;;4.67;;
22357;SDS011;11346;50.150;8.150;2022-10-31T04:01:05;7.93;;;3.60;;
22357;SDS011;11346;50.150;8.150;2022-10-31T04:03:33;9.50;;;4.20;;
22357;SDS011;11346;50.150;8.150;2022-10-31T04:06:03;15.87;;;4.23;;
22357;SDS011;11346;50.150;8.150;2022-10-31T04:08:33;13.53;;;4.30;;
22357;SDS011;11346;50.150;8.150;2022-10-31T04:11:01;8.00;;;4.60;;
22357;SDS011;11346;50.150;8.150;2022-10-31T04:13:30;13.67;;;4.60;;
22357;SDS011;11346;50.150;8.150;2022-10-31T04:15:58;9.20;;;4.57;;
22357;SDS011;11346;50.150;8.150;2022-10-31T04:18:25;10.23;;;4.53;;
22357;SDS011;11346;50.150;8.150;2022-10-31T04:20:59;11.27;;;3.87;;
22357;SDS011;11346;50.150;8.150;2022-10-31T04:23:27;10.97;;;3.90;;
22357;SDS011;11346;50.150;8.150;2022-10-31T04:25:56;9.40;;;3.70;;
22357;SDS011;11346;50.150;8.150;2022-10-31T04:28:23;9.13;;;4.30;;
22357;SDS011;11346;50.150;8.150;2022-10-31T04:30:50;10.63;;;4.20;;
22357;SDS011;11346;50.150;8.150;2022-10-31T04:33:18;11.60;;;4.30;;
22357;SDS011;11346;50.150;8.150;2022-10-31T04:35:45;12.97;;;5.20;;
22357;SDS011;11346;50.150;8.150;2022-10-31T04:38:12;6.43;;;3.87;;
22357;SDS011;11346;50.150;8.150;2022-10-31T04:40:39;7.03;;;3.57;;
22357;SDS011;11346;50.150;8.150;2022-10-31T04:43:08;13.13;;;4.33;;
22357;SDS011;11346;50.150;8.150;2022-10-31T04:45:35;10.47;;;3.97;;
22357;SDS011;11346;50.150;8.150;2022-10-31T04:48:02;12.27;;;4.90;;
22357;SDS011;11346;50.150;8.150;2022-10-31T04:50:29;8.40;;;3.97;;
22357;SDS011;11346;50.150;8.150;2022-10-31T04:52:57;6.37;;;4.00;;
22357;SDS011;11346;50.150;8.150;2022-10-31T04:55:24;8.47;;;3.77;;
22357;SDS011;11346;50.150;8.150;2022-10-31T04:57:51;8.93;;;3.87;;
22357;SDS011;11346;50.150;8.150;2022-10-31T05:00:20;14.37;;;4.10;;
22357;SDS011;11346;50.150;8.150;2022-10-31T05:02:47;7.10;;;4.33;;
22357;SDS011;11346;50.150;8.150;2022-10-31T05:05:15;10.13;;;3.93;;
22357;SDS011;11346;50.150;8.150;2022-10-31T05:07:44;7.67;;;4.00;;
22357;SDS011;11346;50.150;8.150;2022-10-31T05:10:12;10.67;;;4.07;;
22357;SDS011;11346;50.150;8.150;2022-10-31T05:12:45;7.63;;;3.97;;
22357;SDS011;11346;50.150;8.150;2022-10-31T05:15:12;12.80;;;4.00;;
22357;SDS011;11346;50.150;8.150;2022-10-31T05:17:41;6.77;;;3.60;;
22357;SDS011;11346;50.150;8.150;2022-10-31T05:20:09;11.23;;;3.93;;
22357;SDS011;11346;50.150;8.150;2022-10-31T05:22:36;11.20;;;4.13;;
22357;SDS011;11346;50.150;8.150;2022-10-31T05:25:03;10.97;;;4.20;;
22357;SDS011;11346;50.150;8.150;2022-10-31T05:27:31;8.70;;;3.80;;
22357;SDS011;11346;50.150;8.150;2022-10-31T05:29:58;10.47;;;4.73;;
22357;SDS011;11346;50.150;8.150;2022-10-31T05:32:25;10.37;;;4.07;;
22357;SDS011;11346;50.150;8.150;2022-10-31T05:34:53;14.77;;;6.07;;
22357;SDS011;11346;50.150;8.150;2022-10-31T05:37:21;7.23;;;3.50;;
22357;SDS011;11346;50.150;8.150;2022-10-31T05:39:48;8.77;;;4.23;;
22357;SDS011;11346;50.150;8.150;2022-10-31T05:42:16;12.40;;;4.07;;
22357;SDS011;11346;50.150;8.150;2022-10-31T05:44:43;8.33;;;3.67;;
22357;SDS011;11346;50.150;8.150;2022-10-31T05:47:10;11.57;;;4.13;;
22357;SDS011;11346;50.150;8.150;2022-10-31T05:49:37;16.90;;;4.20;;
22357;SDS011;11346;50.150;8.150;2022-10-31T05:52:05;7.63;;;3.90;;
22357;SDS011;11346;50.150;8.150;2022-10-31T05:54:32;9.20;;;4.43;;
22357;SDS011;11346;50.150;8.150;2022-10-31T05:57:00;6.33;;;4.03;;
22357;SDS011;11346;50.150;8.150;2022-10-31T05:59:27;7.73;;;3.77;;
22357;SDS011;11346;50.150;8.150;2022-10-31T06:01:54;8.70;;;4.27;;
22357;SDS011;11346;50.150;8.150;2022-10-31T06:04:21;9.33;;;3.77;;
22357;SDS011;11346;50.150;8.150;2022-10-31T06:06:50;9.60;;;3.47;;
22357;SDS011;11346;50.150;8.150;2022-10-31T06:09:19;8.13;;;3.53;;
22357;SDS011;11346;50.150;8.150;2022-10-31T06:11:46;12.33;;;5.03;;
22357;SDS011;11346;50.150;8.150;2022-10-31T06:14:13;12.90;;;4.30;;
22357;SDS011;11346;50.150;8.150;2022-10-31T06:16:40;9.30;;;4.40;;
22357;SDS011;11346;50.150;8.150;2022-10-31T06:19:10;13.37;;;4.50;;
22357;SDS011;11346;50.150;8.150;2022-10-31T06:21:37;10.43;;;4.37;;
22357;SDS011;11346;50.150;8.150;2022-10-31T06:24:04;8.83;;;4.07;;
22357;SDS011;11346;50.150;8.150;2022-10-31T06:26:33;15.43;;;4.30;;
22357;SDS011;11346;50.150;8.150;2022-10-31T06:29:00;14.33;;;4.87;;
22357;SDS011;11346;50.150;8.150;2022-10-31T06:31:27;9.83;;;4.27;;
22357;SDS011;11346;50.150;8.150;2022-10-31T06:33:55;11.47;;;3.53;;
22357;SDS011;11346;50.150;8.150;2022-10-31T06:36:22;9.40;;;3.63;;
22357;SDS011;11346;50.150;8.150;2022-10-31T06:38:49;11.93;;;3.50;;
22357;SDS011;11346;50.150;8.150;2022-10-31T06:41:16;7.90;;;3.57;;
22357;SDS011;11346;50.150;8.150;2022-10-31T06:43:47;10.10;;;3.87;;
22357;SDS011;11346;50.150;8.150;2022-10-31T06:46:14;6.47;;;3.70;;
22357;SDS011;11346;50.150;8.150;2022-10-31T06:48:41;15.47;;;4.43;;
22357;SDS011;11346;50.150;8.150;2022-10-31T06:51:08;5.63;;;4.23;;
22357;SDS011;11346;50.150;8.150;2022-10-31T06:53:35;9.83;;;4.10;;
22357;SDS011;11346;50.150;8.150;2022-10-31T06:56:03;10.67;;;4.07;;
22357;SDS011;11346;50.150;8.150;2022-10-31T06:58:30;7.43;;;3.50;;
22357;SDS011;11346;50.150;8.150;2022-10-31T07:00:59;8.57;;;4.00;;
22357;SDS011;11346;50.150;8.150;2022-10-31T07:03:27;6.90;;;4.13;;
22357;SDS011;11346;50.150;8.150;2022-10-31T07:05:54;10.07;;;3.67;;
22357;SDS011;11346;50.150;8.150;2022-10-31T07:08:22;21.37;;;4.23;;
22357;SDS011;11346;50.150;8.150;2022-10-31T07:10:53;9.87;;;3.97;;
22357;SDS011;11346;50.150;8.150;2022-10-31T07:13:20;15.27;;;4.70;;
22357;SDS011;11346;50.150;8.150;2022-10-31T07:15:50;14.33;;;4.47;;
22357;SDS011;11346;50.150;8.150;2022-10-31T07:18:19;9.30;;;4.30;;
22357;SDS011;11346;50.150;8.150;2022-10-31T07:20:46;9.57;;;4.47;;
22357;SDS011;11346;50.150;8.150;2022-10-31T07:23:14;7.57;;;4.17;;
22357;SDS011;11346;50.150;8.150;2022-10-31T07:25:41;14.13;;;4.07;;
22357;SDS011;11346;50.150;8.150;2022-10-31T07:28:09;10.47;;;4.23;;
22357;SDS011;11346;50.150;8.150;2022-10-31T07:30:36;8.33;;;3.87;;
22357;SDS011;11346;50.150;8.150;2022-10-31T07:33:03;11.57;;;4.67;;
22357;SDS011;11346;50.150;8.150;2022-10-31T07:35:32;8.20;;;4.77;;
22357;SDS011;11346;50.150;8.150;2022-10-31T07:38:06;11.17;;;4.50;;
22357;SDS011;11346;50.150;8.150;2022-10-31T07:40:34;8.90;;;4.37;;
22357;SDS011;11346;50.150;8.150;2022-10-31T07:43:01;9.23;;;4.07;;
22357;SDS011;11346;50.150;8.150;2022-10-31T07:45:28;9.63;;;4.37;;
22357;SDS011;11346;50.150;8.150;2022-10-31T07:47:55;13.67;;;4.67;;
22357;SDS011;11346;50.150;8.150;2022-10-31T07:50:23;9.03;;;4.57;;
22357;SDS011;11346;50.150;8.150;2022-10-31T07:52:58;13.43;;;4.53;;
22357;SDS011;11346;50.150;8.150;2022-10-31T07:55:26;14.10;;;4.30;;
22357;SDS011;11346;50.150;8.150;2022-10-31T07:57:57;10.83;;;4.20;;
22357;SDS011;11346;50.150;8.150;2022-10-31T08:00:24;9.07;;;4.53;;
22357;SDS011;11346;50.150;8.150;2022-10-31T08:02:58;9.77;;;4.13;;
22357;SDS011;11346;50.150;8.150;2022-10-31T08:05:26;11.30;;;4.10;;
22357;SDS011;11346;50.150;8.150;2022-10-31T08:07:53;10.20;;;4.20;;
22357;SDS011;11346;50.150;8.150;2022-10-31T08:10:22;14.07;;;4.27;;
22357;SDS011;11346;50.150;8.150;2022-10-31T08:12:54;10.70;;;4.23;;
22357;SDS011;11346;50.150;8.150;2022-10-31T08:15:22;13.13;;;4.10;;
22357;SDS011;11346;50.150;8.150;2022-10-31T08:17:49;14.57;;;4.53;;
22357;SDS011;11346;50.150;8.150;2022-10-31T08:20:17;11.43;;;3.97;;
22357;SDS011;11346;50.150;8.150;2022-10-31T08:22:51;13.47;;;4.33;;
22357;SDS011;11346;50.150;8.150;2022-10-31T08:25:19;8.57;;;4.20;;
22357;SDS011;11346;50.150;8.150;2022-10-31T08:27:49;9.10;;;4.30;;
22357;SDS011;11346;50.150;8.150;2022-10-31T08:30:19;11.93;;;4.57;;
22357;SDS011;11346;50.150;8.150;2022-10-31T08:32:47;13.23;;;5.00;;
22357;SDS011;11346;50.150;8.150;2022-10-31T08:35:26;12.73;;;4.07;;
22357;SDS011;11346;50.150;8.150;2022-10-31T08:37:53;14.27;;;5.80;;
22357;SDS011;11346;50.150;8.150;2022-10-31T08:40:21;13.53;;;4.67;;
22357;SDS011;11346;50.150;8.150;2022-10-31T08:42:56;34.80;;;7.87;;
22357;SDS011;11346;50.150;8.150;2022-10-31T08:45:23;25.67;;;6.50;;
22357;SDS011;11346;50.150;8.150;2022-10-31T08:47:50;15.90;;;6.40;;
22357;SDS011;11346;50.150;8.150;2022-10-31T08:50:18;15.73;;;6.70;;
22357;SDS011;11346;50.150;8.150;2022-10-31T08:52:48;15.27;;;6.90;;
22357;SDS011;11346;50.150;8.150;2022-10-31T08:55:18;22.43;;;6.00;;
22357;SDS011;11346;50.150;8.150;2022-10-31T08:57:46;9.33;;;4.57;;
22357;SDS011;11346;50.150;8.150;2022-10-31T09:00:14;11.67;;;4.57;;
22357;SDS011;11346;50.150;8.150;2022-10-31T09:02:42;13.90;;;5.33;;
22357;SDS011;11346;50.150;8.150;2022-10-31T09:05:09;18.17;;;4.97;;
22357;SDS011;11346;50.150;8.150;2022-10-31T09:07:36;11.43;;;4.87;;
22357;SDS011;11346;50.150;8.150;2022-10-31T09:10:03;17.50;;;4.50;;
22357;SDS011;11346;50.150;8.150;2022-10-31T09:12:30;10.67;;;4.93;;
22357;SDS011;11346;50.150;8.150;2022-10-31T09:14:57;7.47;;;4.20;;
22357;SDS011;11346;50.150;8.150;2022-10-31T09:17:27;14.00;;;4.40;;
22357;SDS011;11346;50.150;8.150;2022-10-31T09:19:54;9.80;;;3.90;;
22357;SDS011;11346;50.150;8.150;2022-10-31T09:22:22;13.60;;;4.30;;
22357;SDS011;11346;50.150;8.150;2022-10-31T09:24:49;13.53;;;4.20;;
22357;SDS011;11346;50.150;8.150;2022-10-31T09:27:16;11.07;;;4.00;;
22357;SDS011;11346;50.150;8.150;2022-10-31T09:29:44;8.10;;;3.77;;
22357;SDS011;11346;50.150;8.150;2022-10-31T09:32:11;10.67;;;3.83;;
22357;SDS011;11346;50.150;8.150;2022-10-31T09:34:39;10.97;;;3.53;;
22357;SDS011;11346;50.150;8.150;2022-10-31T09:37:06;12.97;;;3.73;;
22357;SDS011;11346;50.150;8.150;2022-10-31T09:39:34;11.00;;;3.43;;
22357;SDS011;11346;50.150;8.150;2022-10-31T09:42:04;11.13;;;4.03;;
22357;SDS011;11346;50.150;8.150;2022-10-31T09:44:39;10.10;;;3.57;;
22357;SDS011;11346;50.150;8.150;2022-10-31T09:47:09;4.80;;;3.43;;
22357;SDS011;11346;50.150;8.150;2022-10-31T09:49:46;9.60;;;3.63;;
22357;SDS011;11346;50.150;8.150;2022-10-31T09:52:17;8.23;;;3.87;;
22357;SDS011;11346;50.150;8.150;2022-10-31T09:54:47;8.53;;;3.53;;
22357;SDS011;11346;50.150;8.150;2022-10-31T09:57:17;12.47;;;4.47;;
22357;SDS011;11346;50.150;8.150;2022-10-31T09:59:46;11.00;;;4.17;;
22357;SDS011;11346;50.150;8.150;2022-10-31T10:02:16;10.80;;;3.50;;
22357;SDS011;11346;50.150;8.150;2022-10-31T10:04:48;12.70;;;3.37;;
22357;SDS011;11346;50.150;8.150;2022-10-31T10:07:20;9.30;;;3.60;;
22357;SDS011;11346;50.150;8.150;2022-10-31T10:09:49;9.13;;;3.70;;
22357;SDS011;11346;50.150;8.150;2022-10-31T10:12:18;8.93;;;3.60;;
22357;SDS011;11346;50.150;8.150;2022-10-31T10:14:53;14.60;;;3.70;;
22357;SDS011;11346;50.150;8.150;2022-10-31T10:17:26;9.33;;;3.43;;
22357;SDS011;11346;50.150;8.150;2022-10-31T10:20:21;14.50;;;3.80;;
22357;SDS011;11346;50.150;8.150;2022-10-31T10:22:52;8.23;;;3.43;;
22357;SDS011;11346;50.150;8.150;2022-10-31T10:25:21;11.33;;;3.80;;
22357;SDS011;11346;50.150;8.150;2022-10-31T10:27:50;11.70;;;3.73;;
22357;SDS011;11346;50.150;8.150;2022-10-31T10:30:19;13.23;;;3.70;;
22357;SDS011;11346;50.150;8.150;2022-10-31T10:32:47;11.30;;;3.43;;
22357;SDS011;11346;50.150;8.150;2022-10-31T10:35:19;9.20;;;3.90;;
22357;SDS011;11346;50.150;8.150;2022-10-31T10:37:48;8.27;;;3.77;;
22357;SDS011;11346;50.150;8.150;2022-10-31T10:40:18;10.93;;;3.97;;
22357;SDS011;11346;50.150;8.150;2022-10-31T10:42:50;7.13;;;3.63;;
22357;SDS011;11346;50.150;8.150;2022-10-31T10:45:37;9.53;;;3.50;;
22357;SDS011;11346;50.150;8.150;2022-10-31T10:48:26;12.87;;;3.47;;
22357;SDS011;11346;50.150;8.150;2022-10-31T10:50:57;11.43;;;3.60;;
22357;SDS011;11346;50.150;8.150;2022-10-31T10:53:28;14.37;;;4.50;;
22357;SDS011;11346;50.150;8.150;2022-10-31T10:56:03;13.17;;;3.57;;
22357;SDS011;11346;50.150;8.150;2022-10-31T10:58:33;8.70;;;3.83;;
22357;SDS011;11346;50.150;8.150;2022-10-31T11:01:08;8.97;;;3.60;;
22357;SDS011;11346;50.150;8.150;2022-10-31T11:03:35;10.33;;;3.53;;
22357;SDS011;11346;50.150;8.150;2022-10-31T11:06:04;9.70;;;3.90;;
22357;SDS011;11346;50.150;8.150;2022-10-31T11:08:32;8.47;;;3.30;;
22357;SDS011;11346;50.150;8.150;2022-10-31T11:11:00;9.00;;;3.43;;
22357;SDS011;11346;50.150;8.150;2022-10-31T11:13:28;9.70;;;3.93;;
22357;SDS011;11346;50.150;8.150;2022-10-31T11:15:57;9.83;;;4.20;;
22357;SDS011;11346;50.150;8.150;2022-10-31T11:18:29;12.63;;;4.73;;
22357;SDS011;11346;50.150;8.150;2022-10-31T11:20:57;9.13;;;3.37;;
22357;SDS011;11346;50.150;8.150;2022-10-31T11:23:27;10.40;;;3.60;;
22357;SDS011;11346;50.150;8.150;2022-10-31T11:25:55;7.93;;;3.53;;
22357;SDS011;11346;50.150;8.150;2022-10-31T11:28:22;11.03;;;3.57;;
22357;SDS011;11346;50.150;8.150;2022-10-31T11:30:53;16.30;;;4.53;;
22357;SDS011;11346;50.150;8.150;2022-10-31T11:33:22;8.13;;;3.37;;
22357;SDS011;11346;50.150;8.150;2022-10-31T11:35:51;8.80;;;3.73;;
22357;SDS011;11346;50.150;8.150;2022-10-31T11:38:20;10.53;;;4.10;;
22357;SDS011;11346;50.150;8.150;2022-10-31T11:40:53;11.43;;;3.73;;
22357;SDS011;11346;50.150;8.150;2022-10-31T11:43:21;12.80;;;3.50;;
22357;SDS011;11346;50.150;8.150;2022-10-31T11:45:48;13.97;;;3.80;;
22357;SDS011;11346;50.150;8.150;2022-10-31T11:48:16;9.47;;;3.27;;
22357;SDS011;11346;50.150;8.150;2022-10-31T11:50:47;12.90;;;3.50;;
22357;SDS011;11346;50.150;8.150;2022-10-31T11:53:16;9.37;;;3.60;;
22357;SDS011;11346;50.150;8.150;2022-10-31T11:55:44;12.37;;;3.87;;
22357;SDS011;11346;50.150;8.150;2022-10-31T11:58:23;13.80;;;3.90;;
22357;SDS011;11346;50.150;8.150;2022-10-31T12:00:51;8.90;;;3.90;;
22357;SDS011;11346;50.150;8.150;2022-10-31T12:03:26;12.50;;;3.70;;
22357;SDS011;11346;50.150;8.150;2022-10-31T12:05:55;13.13;;;3.83;;
22357;SDS011;11346;50.150;8.150;2022-10-31T12:08:23;11.33;;;3.83;;
22357;SDS011;11346;50.150;8.150;2022-10-31T12:10:54;9.37;;;4.23;;
22357;SDS011;11346;50.150;8.150;2022-10-31T12:13:29;10.77;;;4.40;;
22357;SDS011;11346;50.150;8.150;2022-10-31T12:15:59;8.90;;;4.23;;
22357;SDS011;11346;50.150;8.150;2022-10-31T12:18:31;12.30;;;3.90;;
22357;SDS011;11346;50.150;8.150;2022-10-31T12:21:03;7.70;;;3.77;;
22357;SDS011;11346;50.150;8.150;2022-10-31T12:23:36;10.23;;;3.57;;
22357;SDS011;11346;50.150;8.150;2022-10-31T12:26:08;10.33;;;3.90;;
22357;SDS011;11346;50.150;8.150;2022-10-31T12:31:29;9.13;;;3.67;;
22357;SDS011;11346;50.150;8.150;2022-10-31T12:34:02;14.23;;;3.53;;
22357;SDS011;11346;50.150;8.150;2022-10-31T12:36:38;11.80;;;3.70;;
22357;SDS011;11346;50.150;8.150;2022-10-31T12:39:12;12.07;;;3.83;;
22357;SDS011;11346;50.150;8.150;2022-10-31T12:41:45;7.90;;;3.80;;
22357;SDS011;11346;50.150;8.150;2022-10-31T12:44:25;9.57;;;3.90;;
22357;SDS011;11346;50.150;8.150;2022-10-31T12:46:59;12.00;;;4.10;;
22357;SDS011;11346;50.150;8.150;2022-10-31T12:49:38;13.13;;;4.00;;
22357;SDS011;11346;50.150;8.150;2022-10-31T12:52:13;10.80;;;4.47;;
22357;SDS011;11346;50.150;8.150;2022-10-31T12:54:49;10.90;;;3.93;;
22357;SDS011;11346;50.150;8.150;2022-10-31T12:57:20;10.10;;;3.80;;
22357;SDS011;11346;50.150;8.150;2022-10-31T12:59:50;14.73;;;4.10;;
22357;SDS011;11346;50.150;8.150;2022-10-31T13:02:20;10.87;;;3.70;;
22357;SDS011;11346;50.150;8.150;2022-10-31T13:04:49;9.43;;;4.43;;
22357;SDS011;11346;50.150;8.150;2022-10-31T13:07:18;14.27;;;4.03;;
22357;SDS011;11346;50.150;8.150;2022-10-31T13:09:48;8.73;;;3.93;;
22357;SDS011;11346;50.150;8.150;2022-10-31T13:12:17;18.47;;;4.67;;
22357;SDS011;11346;50.150;8.150;2022-10-31T13:14:46;10.17;;;3.80;;
22357;SDS011;11346;50.150;8.150;2022-10-31T13:17:16;11.33;;;4.20;;
22357;SDS011;11346;50.150;8.150;2022-10-31T13:19:49;13.57;;;4.00;;
22357;SDS011;11346;50.150;8.150;2022-10-31T13:22:18;13.70;;;4.00;;
22357;SDS011;11346;50.150;8.150;2022-10-31T13:25:03;12.07;;;4.23;;
22357;SDS011;11346;50.150;8.150;2022-10-31T13:27:33;8.37;;;3.83;;
22357;SDS011;11346;50.150;8.150;2022-10-31T13:30:05;11.50;;;4.57;;
22357;SDS011;11346;50.150;8.150;2022-10-31T13:32:37;13.27;;;4.47;;
22357;SDS011;11346;50.150;8.150;2022-10-31T13:35:07;14.77;;;5.70;;
22357;SDS011;11346;50.150;8.150;2022-10-31T13:37:38;9.83;;;4.40;;
22357;SDS011;11346;50.150;8.150;2022-10-31T13:40:12;11.33;;;3.83;;
22357;SDS011;11346;50.150;8.150;2022-10-31T13:42:43;16.90;;;4.87;;
22357;SDS011;11346;50.150;8.150;2022-10-31T13:45:13;12.93;;;5.27;;
22357;SDS011;11346;50.150;8.150;2022-10-31T13:47:40;15.37;;;5.53;;
22357;SDS011;11346;50.150;8.150;2022-10-31T13:50:20;16.20;;;5.10;;
22357;SDS011;11346;50.150;8.150;2022-10-31T13:52:47;11.50;;;5.47;;
22357;SDS011;11346;50.150;8.150;2022-10-31T13:58:00;10.77;;;4.90;;
22357;SDS011;11346;50.150;8.150;2022-10-31T14:00:30;11.03;;;4.93;;
22357;SDS011;11346;50.150;8.150;2022-10-31T14:02:59;18.10;;;5.17;;
22357;SDS011;11346;50.150;8.150;2022-10-31T14:05:29;15.57;;;5.00;;
22357;SDS011;11346;50.150;8.150;2022-10-31T14:07:58;9.93;;;4.80;;
22357;SDS011;11346;50.150;8.150;2022-10-31T14:10:26;10.17;;;4.20;;
22357;SDS011;11346;50.150;8.150;2022-10-31T14:13:02;16.03;;;4.43;;
22357;SDS011;11346;50.150;8.150;2022-10-31T14:15:30;8.40;;;4.73;;
22357;SDS011;11346;50.150;8.150;2022-10-31T14:17:58;10.67;;;4.17;;
22357;SDS011;11346;50.150;8.150;2022-10-31T14:20:37;11.63;;;4.60;;
22357;SDS011;11346;50.150;8.150;2022-10-31T14:25:53;13.27;;;5.93;;
22357;SDS011;11346;50.150;8.150;2022-10-31T14:28:21;10.13;;;4.70;;
22357;SDS011;11346;50.150;8.150;2022-10-31T14:30:52;14.47;;;4.87;;
22357;SDS011;11346;50.150;8.150;2022-10-31T14:33:19;17.70;;;5.50;;
22357;SDS011;11346;50.150;8.150;2022-10-31T14:35:51;13.50;;;4.40;;
22357;SDS011;11346;50.150;8.150;2022-10-31T14:38:27;14.03;;;4.23;;
22357;SDS011;11346;50.150;8.150;2022-10-31T14:41:08;10.63;;;4.97;;
22357;SDS011;11346;50.150;8.150;2022-10-31T14:43:56;15.53;;;4.40;;
22357;SDS011;11346;50.150;8.150;2022-10-31T14:46:31;15.00;;;5.23;;
22357;SDS011;11346;50.150;8.150;2022-10-31T14:49:04;13.57;;;4.13;;
22357;SDS011;11346;50.150;8.150;2022-10-31T14:51:40;10.97;;;4.37;;
22357;SDS011;11346;50.150;8.150;2022-10-31T14:54:10;9.33;;;4.40;;
22357;SDS011;11346;50.150;8.150;2022-10-31T14:56:41;16.30;;;5.03;;
22357;SDS011;11346;50.150;8.150;2022-10-31T14:59:12;8.77;;;4.40;;
22357;SDS011;11346;50.150;8.150;2022-10-31T15:01:40;8.40;;;4.93;;
22357;SDS011;11346;50.150;8.150;2022-10-31T15:04:16;9.70;;;4.20;;
22357;SDS011;11346;50.150;8.150;2022-10-31T15:06:46;10.17;;;3.73;;